sensor_id;sensor_type;location;lat;lon;timestamp;P1;durP1;ratioP1;P2;durP2;ratioP2
52898;SDS011;38763;53.096;6.062;2023-06-04T00:00:25;13.18;;;3.78;;
52898;SDS011;38763;53.096;6.062;2023-06-04T00:02:50;14.32;;;3.58;;
52898;SDS011;38763;53.096;6.062;2023-06-04T00:05:16;9.50;;;3.92;;
52898;SDS011;38763;53.096;6.062;2023-06-04T00:07:42;8.93;;;4.00;;
52898;SDS011;38763;53.096;6.062;2023-06-04T00:10:08;13.48;;;4.78;;
52898;SDS011;38763;53.096;6.062;2023-06-04T00:12:34;9.05;;;3.80;;
52898;SDS011;38763;53.096;6.062;2023-06-04T00:15:00;9.75;;;3.88;;
52898;SDS011;38763;53.096;6.062;2023-06-04T00:17:26;15.13;;;4.53;;
52898;SDS011;38763;53.096;6.062;2023-06-04T00:19:52;9.50;;;4.22;;
52898;SDS011;38763;53.096;6.062;2023-06-04T00:22:18;8.40;;;3.72;;
52898;SDS011;38763;53.096;6.062;2023-06-04T00:24:43;10.55;;;4.25;;
52898;SDS011;38763;53.096;6.062;2023-06-04T00:27:09;13.25;;;4.22;;
52898;SDS011;38763;53.096;6.062;2023-06-04T00:29:35;10.88;;;4.07;;
52898;SDS011;38763;53.096;6.062;2023-06-04T00:32:00;11.15;;;4.22;;
52898;SDS011;38763;53.096;6.062;2023-06-04T00:34:26;11.95;;;4.72;;
52898;SDS011;38763;53.096;6.062;2023-06-04T00:36:52;11.65;;;4.50;;
52898;SDS011;38763;53.096;6.062;2023-06-04T00:39:18;10.05;;;4.65;;
52898;SDS011;38763;53.096;6.062;2023-06-04T00:41:43;8.88;;;3.75;;
52898;SDS011;38763;53.096;6.062;2023-06-04T00:44:09;12.68;;;4.22;;
52898;SDS011;38763;53.096;6.062;2023-06-04T00:46:36;11.77;;;4.20;;
52898;SDS011;38763;53.096;6.062;2023-06-04T00:49:02;11.75;;;4.28;;
52898;SDS011;38763;53.096;6.062;2023-06-04T00:51:29;13.68;;;4.63;;
52898;SDS011;38763;53.096;6.062;2023-06-04T00:53:56;10.45;;;4.35;;
52898;SDS011;38763;53.096;6.062;2023-06-04T00:56:22;16.10;;;5.05;;
52898;SDS011;38763;53.096;6.062;2023-06-04T00:58:47;10.63;;;4.05;;
52898;SDS011;38763;53.096;6.062;2023-06-04T01:01:22;12.10;;;4.20;;
52898;SDS011;38763;53.096;6.062;2023-06-04T01:04:00;9.38;;;4.22;;
52898;SDS011;38763;53.096;6.062;2023-06-04T01:09:02;7.07;;;3.95;;
52898;SDS011;38763;53.096;6.062;2023-06-04T01:14:05;11.55;;;4.35;;
52898;SDS011;38763;53.096;6.062;2023-06-04T01:16:39;13.57;;;4.25;;
52898;SDS011;38763;53.096;6.062;2023-06-04T01:22:39;14.90;;;4.35;;
52898;SDS011;38763;53.096;6.062;2023-06-04T01:27:49;9.23;;;3.70;;
52898;SDS011;38763;53.096;6.062;2023-06-04T01:30:19;6.95;;;3.70;;
52898;SDS011;38763;53.096;6.062;2023-06-04T01:32:48;11.43;;;3.88;;
52898;SDS011;38763;53.096;6.062;2023-06-04T01:35:14;8.15;;;3.83;;
52898;SDS011;38763;53.096;6.062;2023-06-04T01:37:39;8.50;;;4.13;;
52898;SDS011;38763;53.096;6.062;2023-06-04T01:40:05;10.18;;;4.07;;
52898;SDS011;38763;53.096;6.062;2023-06-04T01:42:33;7.82;;;4.03;;
52898;SDS011;38763;53.096;6.062;2023-06-04T01:44:59;13.27;;;4.15;;
52898;SDS011;38763;53.096;6.062;2023-06-04T01:47:24;9.55;;;3.92;;
52898;SDS011;38763;53.096;6.062;2023-06-04T01:49:50;10.50;;;4.63;;
52898;SDS011;38763;53.096;6.062;2023-06-04T01:52:16;10.18;;;3.75;;
52898;SDS011;38763;53.096;6.062;2023-06-04T01:54:42;14.35;;;4.15;;
52898;SDS011;38763;53.096;6.062;2023-06-04T01:57:08;12.13;;;4.00;;
52898;SDS011;38763;53.096;6.062;2023-06-04T01:59:35;10.82;;;4.07;;
52898;SDS011;38763;53.096;6.062;2023-06-04T02:02:01;12.63;;;4.10;;
52898;SDS011;38763;53.096;6.062;2023-06-04T02:04:27;14.32;;;3.80;;
52898;SDS011;38763;53.096;6.062;2023-06-04T02:06:53;9.48;;;4.10;;
52898;SDS011;38763;53.096;6.062;2023-06-04T02:09:20;13.23;;;4.40;;
52898;SDS011;38763;53.096;6.062;2023-06-04T02:11:46;12.18;;;4.40;;
52898;SDS011;38763;53.096;6.062;2023-06-04T02:14:12;10.65;;;3.72;;
52898;SDS011;38763;53.096;6.062;2023-06-04T02:16:37;7.50;;;3.97;;
52898;SDS011;38763;53.096;6.062;2023-06-04T02:19:04;11.60;;;4.57;;
52898;SDS011;38763;53.096;6.062;2023-06-04T02:21:30;11.90;;;4.07;;
52898;SDS011;38763;53.096;6.062;2023-06-04T02:23:55;12.00;;;4.53;;
52898;SDS011;38763;53.096;6.062;2023-06-04T02:26:21;11.43;;;4.20;;
52898;SDS011;38763;53.096;6.062;2023-06-04T02:28:48;15.55;;;4.13;;
52898;SDS011;38763;53.096;6.062;2023-06-04T02:31:14;9.65;;;4.57;;
52898;SDS011;38763;53.096;6.062;2023-06-04T02:33:39;13.15;;;4.40;;
52898;SDS011;38763;53.096;6.062;2023-06-04T02:36:05;10.68;;;4.53;;
52898;SDS011;38763;53.096;6.062;2023-06-04T02:38:31;12.63;;;4.25;;
52898;SDS011;38763;53.096;6.062;2023-06-04T02:40:56;11.50;;;4.60;;
52898;SDS011;38763;53.096;6.062;2023-06-04T02:43:22;8.38;;;4.25;;
52898;SDS011;38763;53.096;6.062;2023-06-04T02:45:48;9.05;;;4.07;;
52898;SDS011;38763;53.096;6.062;2023-06-04T02:48:13;9.40;;;3.88;;
52898;SDS011;38763;53.096;6.062;2023-06-04T02:50:39;11.40;;;4.18;;
52898;SDS011;38763;53.096;6.062;2023-06-04T02:53:07;8.43;;;3.83;;
52898;SDS011;38763;53.096;6.062;2023-06-04T02:55:33;9.32;;;3.78;;
52898;SDS011;38763;53.096;6.062;2023-06-04T02:57:59;12.20;;;4.32;;
52898;SDS011;38763;53.096;6.062;2023-06-04T03:00:25;10.25;;;3.63;;
52898;SDS011;38763;53.096;6.062;2023-06-04T03:02:51;12.82;;;3.92;;
52898;SDS011;38763;53.096;6.062;2023-06-04T03:05:17;15.20;;;4.65;;
52898;SDS011;38763;53.096;6.062;2023-06-04T03:07:43;8.65;;;4.50;;
52898;SDS011;38763;53.096;6.062;2023-06-04T03:10:11;11.77;;;4.50;;
52898;SDS011;38763;53.096;6.062;2023-06-04T03:12:38;12.50;;;5.00;;
52898;SDS011;38763;53.096;6.062;2023-06-04T03:15:04;11.23;;;4.60;;
52898;SDS011;38763;53.096;6.062;2023-06-04T03:17:30;13.48;;;4.70;;
52898;SDS011;38763;53.096;6.062;2023-06-04T03:19:57;10.88;;;4.82;;
52898;SDS011;38763;53.096;6.062;2023-06-04T03:22:23;14.57;;;4.68;;
52898;SDS011;38763;53.096;6.062;2023-06-04T03:24:48;9.80;;;4.50;;
52898;SDS011;38763;53.096;6.062;2023-06-04T03:27:14;11.88;;;4.82;;
52898;SDS011;38763;53.096;6.062;2023-06-04T03:29:40;12.48;;;4.35;;
52898;SDS011;38763;53.096;6.062;2023-06-04T03:32:06;12.07;;;5.38;;
52898;SDS011;38763;53.096;6.062;2023-06-04T03:34:32;12.30;;;6.07;;
52898;SDS011;38763;53.096;6.062;2023-06-04T03:36:58;10.13;;;5.03;;
52898;SDS011;38763;53.096;6.062;2023-06-04T03:39:24;15.82;;;5.63;;
52898;SDS011;38763;53.096;6.062;2023-06-04T03:41:50;13.43;;;5.63;;
52898;SDS011;38763;53.096;6.062;2023-06-04T03:44:16;15.25;;;4.95;;
52898;SDS011;38763;53.096;6.062;2023-06-04T03:46:43;16.02;;;5.63;;
52898;SDS011;38763;53.096;6.062;2023-06-04T03:49:10;14.57;;;5.40;;
52898;SDS011;38763;53.096;6.062;2023-06-04T03:51:37;15.10;;;5.60;;
52898;SDS011;38763;53.096;6.062;2023-06-04T03:54:02;16.42;;;5.57;;
52898;SDS011;38763;53.096;6.062;2023-06-04T03:56:28;14.98;;;5.32;;
52898;SDS011;38763;53.096;6.062;2023-06-04T03:58:54;16.02;;;6.60;;
52898;SDS011;38763;53.096;6.062;2023-06-04T04:01:20;17.70;;;7.30;;
52898;SDS011;38763;53.096;6.062;2023-06-04T04:03:46;15.43;;;6.30;;
52898;SDS011;38763;53.096;6.062;2023-06-04T04:06:14;15.13;;;5.90;;
52898;SDS011;38763;53.096;6.062;2023-06-04T04:08:40;12.43;;;5.63;;
52898;SDS011;38763;53.096;6.062;2023-06-04T04:11:09;14.77;;;5.95;;
52898;SDS011;38763;53.096;6.062;2023-06-04T04:13:38;16.70;;;5.85;;
52898;SDS011;38763;53.096;6.062;2023-06-04T04:16:04;15.48;;;5.55;;
52898;SDS011;38763;53.096;6.062;2023-06-04T04:18:33;13.07;;;5.63;;
52898;SDS011;38763;53.096;6.062;2023-06-04T04:21:00;10.18;;;5.15;;
52898;SDS011;38763;53.096;6.062;2023-06-04T04:23:28;12.95;;;5.65;;
52898;SDS011;38763;53.096;6.062;2023-06-04T04:25:54;13.57;;;5.88;;
52898;SDS011;38763;53.096;6.062;2023-06-04T04:28:26;12.43;;;5.43;;
52898;SDS011;38763;53.096;6.062;2023-06-04T04:30:53;10.35;;;5.50;;
52898;SDS011;38763;53.096;6.062;2023-06-04T04:33:22;14.05;;;5.82;;
52898;SDS011;38763;53.096;6.062;2023-06-04T04:35:52;16.65;;;6.18;;
52898;SDS011;38763;53.096;6.062;2023-06-04T04:38:21;18.27;;;7.18;;
52898;SDS011;38763;53.096;6.062;2023-06-04T04:40:49;14.13;;;7.57;;
52898;SDS011;38763;53.096;6.062;2023-06-04T04:43:17;15.95;;;7.75;;
52898;SDS011;38763;53.096;6.062;2023-06-04T04:45:53;13.63;;;6.63;;
52898;SDS011;38763;53.096;6.062;2023-06-04T04:48:19;11.07;;;6.43;;
52898;SDS011;38763;53.096;6.062;2023-06-04T04:50:45;15.52;;;6.45;;
52898;SDS011;38763;53.096;6.062;2023-06-04T04:53:10;15.98;;;6.15;;
52898;SDS011;38763;53.096;6.062;2023-06-04T04:55:36;12.38;;;6.00;;
52898;SDS011;38763;53.096;6.062;2023-06-04T04:58:02;17.05;;;6.75;;
52898;SDS011;38763;53.096;6.062;2023-06-04T05:00:28;13.23;;;6.07;;
52898;SDS011;38763;53.096;6.062;2023-06-04T05:02:54;16.48;;;5.70;;
52898;SDS011;38763;53.096;6.062;2023-06-04T05:05:20;14.13;;;5.65;;
52898;SDS011;38763;53.096;6.062;2023-06-04T05:07:45;14.88;;;5.72;;
52898;SDS011;38763;53.096;6.062;2023-06-04T05:10:11;17.67;;;6.28;;
52898;SDS011;38763;53.096;6.062;2023-06-04T05:12:37;13.95;;;4.97;;
52898;SDS011;38763;53.096;6.062;2023-06-04T05:15:03;14.95;;;5.93;;
52898;SDS011;38763;53.096;6.062;2023-06-04T05:17:29;16.48;;;5.72;;
52898;SDS011;38763;53.096;6.062;2023-06-04T05:19:58;15.35;;;6.07;;
52898;SDS011;38763;53.096;6.062;2023-06-04T05:22:36;17.70;;;5.90;;
52898;SDS011;38763;53.096;6.062;2023-06-04T05:25:05;15.18;;;6.25;;
52898;SDS011;38763;53.096;6.062;2023-06-04T05:27:31;19.50;;;6.97;;
52898;SDS011;38763;53.096;6.062;2023-06-04T05:29:58;20.58;;;7.93;;
52898;SDS011;38763;53.096;6.062;2023-06-04T05:32:23;16.88;;;6.97;;
52898;SDS011;38763;53.096;6.062;2023-06-04T05:34:53;17.42;;;7.68;;
52898;SDS011;38763;53.096;6.062;2023-06-04T05:37:22;15.25;;;8.18;;
52898;SDS011;38763;53.096;6.062;2023-06-04T05:39:55;17.60;;;7.93;;
52898;SDS011;38763;53.096;6.062;2023-06-04T05:42:22;17.02;;;7.95;;
52898;SDS011;38763;53.096;6.062;2023-06-04T05:44:48;20.17;;;7.57;;
52898;SDS011;38763;53.096;6.062;2023-06-04T05:47:15;16.77;;;6.78;;
52898;SDS011;38763;53.096;6.062;2023-06-04T05:49:44;14.70;;;6.35;;
52898;SDS011;38763;53.096;6.062;2023-06-04T05:52:09;12.80;;;6.60;;
52898;SDS011;38763;53.096;6.062;2023-06-04T05:54:35;18.42;;;6.20;;
52898;SDS011;38763;53.096;6.062;2023-06-04T05:57:03;11.70;;;4.80;;
52898;SDS011;38763;53.096;6.062;2023-06-04T05:59:30;11.63;;;4.40;;
52898;SDS011;38763;53.096;6.062;2023-06-04T06:01:56;12.48;;;4.38;;
52898;SDS011;38763;53.096;6.062;2023-06-04T06:04:22;12.15;;;4.80;;
52898;SDS011;38763;53.096;6.062;2023-06-04T06:06:47;15.00;;;5.07;;
52898;SDS011;38763;53.096;6.062;2023-06-04T06:09:13;10.57;;;5.00;;
52898;SDS011;38763;53.096;6.062;2023-06-04T06:11:42;12.15;;;4.10;;
52898;SDS011;38763;53.096;6.062;2023-06-04T06:14:07;10.88;;;4.40;;
52898;SDS011;38763;53.096;6.062;2023-06-04T06:16:33;10.38;;;3.72;;
52898;SDS011;38763;53.096;6.062;2023-06-04T06:18:59;12.40;;;3.80;;
52898;SDS011;38763;53.096;6.062;2023-06-04T06:21:26;9.90;;;3.53;;
52898;SDS011;38763;53.096;6.062;2023-06-04T06:23:52;11.63;;;3.70;;
52898;SDS011;38763;53.096;6.062;2023-06-04T06:26:18;15.23;;;3.95;;
52898;SDS011;38763;53.096;6.062;2023-06-04T06:28:44;12.45;;;2.75;;
52898;SDS011;38763;53.096;6.062;2023-06-04T06:31:09;12.05;;;3.58;;
52898;SDS011;38763;53.096;6.062;2023-06-04T06:33:35;12.88;;;3.40;;
52898;SDS011;38763;53.096;6.062;2023-06-04T06:36:12;9.88;;;3.25;;
52898;SDS011;38763;53.096;6.062;2023-06-04T06:38:38;9.02;;;2.85;;
52898;SDS011;38763;53.096;6.062;2023-06-04T06:41:04;14.75;;;3.83;;
52898;SDS011;38763;53.096;6.062;2023-06-04T06:43:30;10.75;;;3.28;;
52898;SDS011;38763;53.096;6.062;2023-06-04T06:45:56;11.40;;;3.20;;
52898;SDS011;38763;53.096;6.062;2023-06-04T06:48:22;9.63;;;2.92;;
52898;SDS011;38763;53.096;6.062;2023-06-04T06:50:48;10.95;;;2.95;;
52898;SDS011;38763;53.096;6.062;2023-06-04T06:53:14;15.27;;;3.65;;
52898;SDS011;38763;53.096;6.062;2023-06-04T06:55:40;9.38;;;2.97;;
52898;SDS011;38763;53.096;6.062;2023-06-04T06:58:05;10.23;;;3.22;;
52898;SDS011;38763;53.096;6.062;2023-06-04T07:00:31;11.82;;;3.25;;
52898;SDS011;38763;53.096;6.062;2023-06-04T07:02:57;15.80;;;3.42;;
52898;SDS011;38763;53.096;6.062;2023-06-04T07:05:22;9.48;;;3.72;;
52898;SDS011;38763;53.096;6.062;2023-06-04T07:07:48;9.65;;;2.78;;
52898;SDS011;38763;53.096;6.062;2023-06-04T07:10:13;7.68;;;2.90;;
52898;SDS011;38763;53.096;6.062;2023-06-04T07:12:39;11.93;;;2.67;;
52898;SDS011;38763;53.096;6.062;2023-06-04T07:15:08;9.77;;;2.50;;
52898;SDS011;38763;53.096;6.062;2023-06-04T07:17:34;7.50;;;2.58;;
52898;SDS011;38763;53.096;6.062;2023-06-04T07:20:00;6.65;;;2.58;;
52898;SDS011;38763;53.096;6.062;2023-06-04T07:22:26;7.05;;;1.95;;
52898;SDS011;38763;53.096;6.062;2023-06-04T07:24:51;7.18;;;2.33;;
52898;SDS011;38763;53.096;6.062;2023-06-04T07:27:18;8.95;;;2.22;;
52898;SDS011;38763;53.096;6.062;2023-06-04T07:29:44;7.65;;;2.20;;
52898;SDS011;38763;53.096;6.062;2023-06-04T07:32:10;8.90;;;2.30;;
52898;SDS011;38763;53.096;6.062;2023-06-04T07:34:37;9.60;;;1.90;;
52898;SDS011;38763;53.096;6.062;2023-06-04T07:37:03;7.47;;;2.13;;
52898;SDS011;38763;53.096;6.062;2023-06-04T07:39:29;10.63;;;2.60;;
52898;SDS011;38763;53.096;6.062;2023-06-04T07:41:55;6.10;;;1.88;;
52898;SDS011;38763;53.096;6.062;2023-06-04T07:44:21;7.07;;;2.10;;
52898;SDS011;38763;53.096;6.062;2023-06-04T07:46:46;7.68;;;2.30;;
52898;SDS011;38763;53.096;6.062;2023-06-04T07:49:12;5.70;;;2.05;;
52898;SDS011;38763;53.096;6.062;2023-06-04T07:51:37;5.22;;;1.75;;
52898;SDS011;38763;53.096;6.062;2023-06-04T07:54:03;8.45;;;2.05;;
52898;SDS011;38763;53.096;6.062;2023-06-04T07:56:29;5.30;;;1.75;;
52898;SDS011;38763;53.096;6.062;2023-06-04T07:58:54;7.93;;;1.70;;
52898;SDS011;38763;53.096;6.062;2023-06-04T08:01:20;8.05;;;1.90;;
52898;SDS011;38763;53.096;6.062;2023-06-04T08:03:46;5.18;;;1.52;;
52898;SDS011;38763;53.096;6.062;2023-06-04T08:06:12;5.43;;;1.70;;
52898;SDS011;38763;53.096;6.062;2023-06-04T08:08:43;6.20;;;2.05;;
52898;SDS011;38763;53.096;6.062;2023-06-04T08:11:13;6.55;;;1.60;;
52898;SDS011;38763;53.096;6.062;2023-06-04T08:13:40;4.93;;;1.75;;
52898;SDS011;38763;53.096;6.062;2023-06-04T08:16:05;7.03;;;2.05;;
52898;SDS011;38763;53.096;6.062;2023-06-04T08:18:32;6.93;;;1.70;;
52898;SDS011;38763;53.096;6.062;2023-06-04T08:20:58;6.38;;;1.83;;
52898;SDS011;38763;53.096;6.062;2023-06-04T08:23:23;6.38;;;1.80;;
52898;SDS011;38763;53.096;6.062;2023-06-04T08:25:49;8.05;;;1.75;;
52898;SDS011;38763;53.096;6.062;2023-06-04T08:28:15;6.05;;;1.80;;
52898;SDS011;38763;53.096;6.062;2023-06-04T08:30:44;4.70;;;1.83;;
52898;SDS011;38763;53.096;6.062;2023-06-04T08:33:11;4.78;;;1.60;;
52898;SDS011;38763;53.096;6.062;2023-06-04T08:35:36;5.50;;;1.85;;
52898;SDS011;38763;53.096;6.062;2023-06-04T08:38:02;6.95;;;1.92;;
52898;SDS011;38763;53.096;6.062;2023-06-04T08:40:28;6.53;;;1.83;;
52898;SDS011;38763;53.096;6.062;2023-06-04T08:42:55;5.45;;;1.75;;
52898;SDS011;38763;53.096;6.062;2023-06-04T08:45:24;4.55;;;1.77;;
52898;SDS011;38763;53.096;6.062;2023-06-04T08:47:53;7.22;;;1.83;;
52898;SDS011;38763;53.096;6.062;2023-06-04T08:50:23;6.25;;;1.73;;
52898;SDS011;38763;53.096;6.062;2023-06-04T08:52:53;5.57;;;1.60;;
52898;SDS011;38763;53.096;6.062;2023-06-04T08:55:19;3.95;;;1.48;;
52898;SDS011;38763;53.096;6.062;2023-06-04T08:57:46;5.10;;;1.50;;
52898;SDS011;38763;53.096;6.062;2023-06-04T09:00:14;4.55;;;1.88;;
52898;SDS011;38763;53.096;6.062;2023-06-04T09:02:40;5.80;;;1.60;;
52898;SDS011;38763;53.096;6.062;2023-06-04T09:05:06;4.55;;;1.70;;
52898;SDS011;38763;53.096;6.062;2023-06-04T09:07:36;5.65;;;1.40;;
52898;SDS011;38763;53.096;6.062;2023-06-04T09:10:04;4.50;;;1.40;;
52898;SDS011;38763;53.096;6.062;2023-06-04T09:12:31;7.97;;;1.67;;
52898;SDS011;38763;53.096;6.062;2023-06-04T09:15:00;6.15;;;1.70;;
52898;SDS011;38763;53.096;6.062;2023-06-04T09:17:26;4.65;;;1.65;;
52898;SDS011;38763;53.096;6.062;2023-06-04T09:19:53;4.28;;;1.63;;
52898;SDS011;38763;53.096;6.062;2023-06-04T09:22:19;3.53;;;1.48;;
52898;SDS011;38763;53.096;6.062;2023-06-04T09:24:47;4.97;;;1.42;;
52898;SDS011;38763;53.096;6.062;2023-06-04T09:27:18;4.60;;;1.60;;
52898;SDS011;38763;53.096;6.062;2023-06-04T09:29:50;5.45;;;1.80;;
52898;SDS011;38763;53.096;6.062;2023-06-04T09:32:21;4.30;;;1.52;;
52898;SDS011;38763;53.096;6.062;2023-06-04T09:34:51;4.38;;;1.40;;
52898;SDS011;38763;53.096;6.062;2023-06-04T09:37:18;5.30;;;1.40;;
52898;SDS011;38763;53.096;6.062;2023-06-04T09:39:53;6.78;;;1.60;;
52898;SDS011;38763;53.096;6.062;2023-06-04T09:42:20;5.05;;;1.50;;
52898;SDS011;38763;53.096;6.062;2023-06-04T09:44:47;4.18;;;1.30;;
52898;SDS011;38763;53.096;6.062;2023-06-04T09:47:13;8.85;;;1.60;;
52898;SDS011;38763;53.096;6.062;2023-06-04T09:49:43;4.20;;;1.50;;
52898;SDS011;38763;53.096;6.062;2023-06-04T09:52:10;4.80;;;1.35;;
52898;SDS011;38763;53.096;6.062;2023-06-04T09:54:36;3.33;;;1.40;;
52898;SDS011;38763;53.096;6.062;2023-06-04T09:57:03;3.55;;;1.40;;
52898;SDS011;38763;53.096;6.062;2023-06-04T09:59:50;4.53;;;1.50;;
52898;SDS011;38763;53.096;6.062;2023-06-04T10:02:19;6.75;;;1.60;;
52898;SDS011;38763;53.096;6.062;2023-06-04T10:04:51;4.72;;;1.70;;
52898;SDS011;38763;53.096;6.062;2023-06-04T10:07:21;4.78;;;1.50;;
52898;SDS011;38763;53.096;6.062;2023-06-04T10:09:48;4.70;;;1.58;;
52898;SDS011;38763;53.096;6.062;2023-06-04T10:12:16;5.65;;;1.30;;
52898;SDS011;38763;53.096;6.062;2023-06-04T10:14:52;5.55;;;1.90;;
52898;SDS011;38763;53.096;6.062;2023-06-04T10:17:21;3.40;;;1.38;;
52898;SDS011;38763;53.096;6.062;2023-06-04T10:19:50;6.05;;;1.77;;
52898;SDS011;38763;53.096;6.062;2023-06-04T10:22:19;5.13;;;1.30;;
52898;SDS011;38763;53.096;6.062;2023-06-04T10:24:48;3.78;;;1.60;;
52898;SDS011;38763;53.096;6.062;2023-06-04T10:27:14;5.57;;;1.55;;
52898;SDS011;38763;53.096;6.062;2023-06-04T10:29:42;4.53;;;1.77;;
52898;SDS011;38763;53.096;6.062;2023-06-04T10:32:09;4.15;;;1.60;;
52898;SDS011;38763;53.096;6.062;2023-06-04T10:34:35;4.95;;;1.63;;
52898;SDS011;38763;53.096;6.062;2023-06-04T10:37:01;6.07;;;1.77;;
52898;SDS011;38763;53.096;6.062;2023-06-04T10:39:31;5.55;;;1.65;;
52898;SDS011;38763;53.096;6.062;2023-06-04T10:44:27;6.60;;;1.70;;
52898;SDS011;38763;53.096;6.062;2023-06-04T10:46:54;7.38;;;1.40;;
52898;SDS011;38763;53.096;6.062;2023-06-04T10:49:26;4.28;;;1.70;;
52898;SDS011;38763;53.096;6.062;2023-06-04T10:51:53;5.68;;;1.70;;
52898;SDS011;38763;53.096;6.062;2023-06-04T10:54:24;4.22;;;1.42;;
52898;SDS011;38763;53.096;6.062;2023-06-04T10:56:51;5.43;;;1.60;;
52898;SDS011;38763;53.096;6.062;2023-06-04T10:59:18;4.93;;;1.50;;
52898;SDS011;38763;53.096;6.062;2023-06-04T11:01:44;5.55;;;1.63;;
52898;SDS011;38763;53.096;6.062;2023-06-04T11:04:20;3.95;;;1.27;;
52898;SDS011;38763;53.096;6.062;2023-06-04T11:06:48;4.63;;;1.67;;
52898;SDS011;38763;53.096;6.062;2023-06-04T11:09:25;4.10;;;1.50;;
52898;SDS011;38763;53.096;6.062;2023-06-04T11:11:58;4.90;;;1.52;;
52898;SDS011;38763;53.096;6.062;2023-06-04T11:14:24;4.95;;;1.45;;
52898;SDS011;38763;53.096;6.062;2023-06-04T11:16:50;4.80;;;1.60;;
52898;SDS011;38763;53.096;6.062;2023-06-04T11:19:15;5.07;;;1.70;;
52898;SDS011;38763;53.096;6.062;2023-06-04T11:21:41;6.15;;;1.55;;
52898;SDS011;38763;53.096;6.062;2023-06-04T11:24:07;7.28;;;1.80;;
52898;SDS011;38763;53.096;6.062;2023-06-04T11:26:33;4.38;;;1.50;;
52898;SDS011;38763;53.096;6.062;2023-06-04T11:29:00;4.00;;;1.40;;
52898;SDS011;38763;53.096;6.062;2023-06-04T11:31:26;6.85;;;1.90;;
52898;SDS011;38763;53.096;6.062;2023-06-04T11:33:52;4.65;;;1.40;;
52898;SDS011;38763;53.096;6.062;2023-06-04T11:36:24;3.85;;;1.30;;
52898;SDS011;38763;53.096;6.062;2023-06-04T11:38:58;3.72;;;1.40;;
52898;SDS011;38763;53.096;6.062;2023-06-04T11:41:31;4.88;;;1.90;;
52898;SDS011;38763;53.096;6.062;2023-06-04T11:44:01;4.35;;;1.60;;
52898;SDS011;38763;53.096;6.062;2023-06-04T11:46:33;4.22;;;1.70;;
52898;SDS011;38763;53.096;6.062;2023-06-04T11:49:00;7.05;;;1.80;;
52898;SDS011;38763;53.096;6.062;2023-06-04T11:51:27;4.32;;;1.48;;
52898;SDS011;38763;53.096;6.062;2023-06-04T11:53:53;3.97;;;1.40;;
52898;SDS011;38763;53.096;6.062;2023-06-04T11:56:20;3.40;;;1.58;;
52898;SDS011;38763;53.096;6.062;2023-06-04T11:58:48;3.88;;;1.52;;
52898;SDS011;38763;53.096;6.062;2023-06-04T12:01:14;5.05;;;1.52;;
52898;SDS011;38763;53.096;6.062;2023-06-04T12:03:41;4.57;;;1.65;;
52898;SDS011;38763;53.096;6.062;2023-06-04T12:08:46;5.90;;;1.33;;
52898;SDS011;38763;53.096;6.062;2023-06-04T12:11:26;4.68;;;1.70;;
52898;SDS011;38763;53.096;6.062;2023-06-04T12:13:53;5.40;;;1.50;;
52898;SDS011;38763;53.096;6.062;2023-06-04T12:16:20;6.95;;;1.60;;
52898;SDS011;38763;53.096;6.062;2023-06-04T12:18:45;4.57;;;1.30;;
52898;SDS011;38763;53.096;6.062;2023-06-04T12:21:16;4.53;;;1.85;;
52898;SDS011;38763;53.096;6.062;2023-06-04T12:26:41;9.38;;;1.95;;
52898;SDS011;38763;53.096;6.062;2023-06-04T12:29:13;6.20;;;1.60;;
52898;SDS011;38763;53.096;6.062;2023-06-04T12:31:43;6.63;;;1.50;;
52898;SDS011;38763;53.096;6.062;2023-06-04T12:34:13;3.05;;;1.50;;
52898;SDS011;38763;53.096;6.062;2023-06-04T12:36:39;5.75;;;1.77;;
52898;SDS011;38763;53.096;6.062;2023-06-04T12:39:06;4.75;;;1.90;;
52898;SDS011;38763;53.096;6.062;2023-06-04T12:41:32;3.80;;;1.30;;
52898;SDS011;38763;53.096;6.062;2023-06-04T12:43:58;6.38;;;1.88;;
52898;SDS011;38763;53.096;6.062;2023-06-04T12:46:24;3.95;;;1.45;;
52898;SDS011;38763;53.096;6.062;2023-06-04T12:48:50;3.80;;;1.40;;
52898;SDS011;38763;53.096;6.062;2023-06-04T12:51:16;3.80;;;1.50;;
52898;SDS011;38763;53.096;6.062;2023-06-04T12:53:42;4.75;;;1.50;;
52898;SDS011;38763;53.096;6.062;2023-06-04T12:56:09;5.95;;;1.70;;
52898;SDS011;38763;53.096;6.062;2023-06-04T12:58:35;7.97;;;1.77;;
52898;SDS011;38763;53.096;6.062;2023-06-04T13:01:01;5.25;;;1.58;;
52898;SDS011;38763;53.096;6.062;2023-06-04T13:03:27;6.22;;;1.58;;
52898;SDS011;38763;53.096;6.062;2023-06-04T13:05:52;3.53;;;1.20;;
52898;SDS011;38763;53.096;6.062;2023-06-04T13:08:21;3.22;;;1.50;;
52898;SDS011;38763;53.096;6.062;2023-06-04T13:10:47;5.82;;;1.48;;
52898;SDS011;38763;53.096;6.062;2023-06-04T13:13:15;9.35;;;2.35;;
52898;SDS011;38763;53.096;6.062;2023-06-04T13:15:44;4.18;;;1.33;;
52898;SDS011;38763;53.096;6.062;2023-06-04T13:18:10;4.10;;;1.52;;
52898;SDS011;38763;53.096;6.062;2023-06-04T13:20:36;5.95;;;1.60;;
52898;SDS011;38763;53.096;6.062;2023-06-04T13:23:02;4.00;;;1.27;;
52898;SDS011;38763;53.096;6.062;2023-06-04T13:25:28;5.65;;;1.50;;
52898;SDS011;38763;53.096;6.062;2023-06-04T13:27:55;5.15;;;1.38;;
52898;SDS011;38763;53.096;6.062;2023-06-04T13:30:21;5.47;;;1.60;;
52898;SDS011;38763;53.096;6.062;2023-06-04T13:32:47;2.78;;;1.27;;
52898;SDS011;38763;53.096;6.062;2023-06-04T13:35:13;6.07;;;1.58;;
52898;SDS011;38763;53.096;6.062;2023-06-04T13:37:39;5.22;;;1.50;;
52898;SDS011;38763;53.096;6.062;2023-06-04T13:40:05;4.13;;;1.92;;
52898;SDS011;38763;53.096;6.062;2023-06-04T13:42:31;5.00;;;1.30;;
52898;SDS011;38763;53.096;6.062;2023-06-04T13:44:57;7.13;;;1.80;;
52898;SDS011;38763;53.096;6.062;2023-06-04T13:47:24;4.97;;;1.50;;
52898;SDS011;38763;53.096;6.062;2023-06-04T13:49:49;3.58;;;1.38;;
52898;SDS011;38763;53.096;6.062;2023-06-04T13:52:15;4.90;;;1.35;;
52898;SDS011;38763;53.096;6.062;2023-06-04T13:54:42;4.35;;;1.40;;
52898;SDS011;38763;53.096;6.062;2023-06-04T13:57:07;3.65;;;1.30;;
52898;SDS011;38763;53.096;6.062;2023-06-04T13:59:36;3.75;;;1.50;;
52898;SDS011;38763;53.096;6.062;2023-06-04T14:02:05;4.05;;;1.48;;
52898;SDS011;38763;53.096;6.062;2023-06-04T14:04:31;3.65;;;1.55;;
52898;SDS011;38763;53.096;6.062;2023-06-04T14:06:57;4.55;;;1.30;;
52898;SDS011;38763;53.096;6.062;2023-06-04T14:09:23;7.22;;;1.40;;
52898;SDS011;38763;53.096;6.062;2023-06-04T14:11:49;4.18;;;1.30;;
52898;SDS011;38763;53.096;6.062;2023-06-04T14:14:19;3.67;;;1.40;;
52898;SDS011;38763;53.096;6.062;2023-06-04T14:16:46;3.88;;;1.35;;
52898;SDS011;38763;53.096;6.062;2023-06-04T14:19:12;4.82;;;1.60;;
52898;SDS011;38763;53.096;6.062;2023-06-04T14:21:39;3.05;;;1.10;;
52898;SDS011;38763;53.096;6.062;2023-06-04T14:24:06;4.40;;;1.30;;
52898;SDS011;38763;53.096;6.062;2023-06-04T14:26:31;7.28;;;1.60;;
52898;SDS011;38763;53.096;6.062;2023-06-04T14:28:58;4.90;;;1.60;;
52898;SDS011;38763;53.096;6.062;2023-06-04T14:31:24;4.88;;;1.40;;
52898;SDS011;38763;53.096;6.062;2023-06-04T14:33:50;7.82;;;1.42;;
52898;SDS011;38763;53.096;6.062;2023-06-04T14:36:15;4.57;;;1.33;;
52898;SDS011;38763;53.096;6.062;2023-06-04T14:38:41;4.93;;;1.33;;
52898;SDS011;38763;53.096;6.062;2023-06-04T14:41:07;4.50;;;1.30;;
52898;SDS011;38763;53.096;6.062;2023-06-04T14:43:32;5.35;;;1.55;;
52898;SDS011;38763;53.096;6.062;2023-06-04T14:45:58;3.60;;;1.40;;
52898;SDS011;38763;53.096;6.062;2023-06-04T14:48:24;5.32;;;1.65;;
52898;SDS011;38763;53.096;6.062;2023-06-04T14:50:50;6.07;;;1.50;;
52898;SDS011;38763;53.096;6.062;2023-06-04T14:53:20;7.97;;;1.42;;
52898;SDS011;38763;53.096;6.062;2023-06-04T14:55:46;6.53;;;1.60;;
52898;SDS011;38763;53.096;6.062;2023-06-04T14:58:12;4.95;;;1.55;;
52898;SDS011;38763;53.096;6.062;2023-06-04T15:00:38;3.72;;;1.30;;